sensor_id;sensor_type;location;lat;lon;timestamp;P1;durP1;ratioP1;P2;durP2;ratioP2
33672;SDS011;20011;51.510;9.942;2023-04-25T00:00:55;9.80;;;3.08;;
33672;SDS011;20011;51.510;9.942;2023-04-25T00:03:22;7.22;;;2.85;;
33672;SDS011;20011;51.510;9.942;2023-04-25T00:05:51;9.02;;;3.13;;
33672;SDS011;20011;51.510;9.942;2023-04-25T00:08:19;9.55;;;3.95;;
33672;SDS011;20011;51.510;9.942;2023-04-25T00:10:46;10.43;;;3.05;;
33672;SDS011;20011;51.510;9.942;2023-04-25T00:13:14;10.98;;;2.85;;
33672;SDS011;20011;51.510;9.942;2023-04-25T00:15:43;8.63;;;3.17;;
33672;SDS011;20011;51.510;9.942;2023-04-25T00:18:12;9.60;;;3.20;;
33672;SDS011;20011;51.510;9.942;2023-04-25T00:20:39;10.82;;;4.10;;
33672;SDS011;20011;51.510;9.942;2023-04-25T00:23:13;9.80;;;3.53;;
33672;SDS011;20011;51.510;9.942;2023-04-25T00:25:44;7.85;;;2.90;;
33672;SDS011;20011;51.510;9.942;2023-04-25T00:28:12;10.10;;;3.80;;
33672;SDS011;20011;51.510;9.942;2023-04-25T00:30:39;8.40;;;3.28;;
33672;SDS011;20011;51.510;9.942;2023-04-25T00:33:07;14.15;;;4.18;;
33672;SDS011;20011;51.510;9.942;2023-04-25T00:35:35;11.73;;;4.38;;
33672;SDS011;20011;51.510;9.942;2023-04-25T00:38:02;10.70;;;3.97;;
33672;SDS011;20011;51.510;9.942;2023-04-25T00:40:29;6.95;;;4.03;;
33672;SDS011;20011;51.510;9.942;2023-04-25T00:42:56;12.32;;;4.30;;
33672;SDS011;20011;51.510;9.942;2023-04-25T00:45:23;12.95;;;4.43;;
33672;SDS011;20011;51.510;9.942;2023-04-25T00:47:55;7.07;;;3.95;;
33672;SDS011;20011;51.510;9.942;2023-04-25T00:50:23;8.30;;;4.18;;
33672;SDS011;20011;51.510;9.942;2023-04-25T00:52:50;12.68;;;5.10;;
33672;SDS011;20011;51.510;9.942;2023-04-25T00:55:18;11.93;;;5.13;;
33672;SDS011;20011;51.510;9.942;2023-04-25T00:57:45;11.32;;;4.93;;
33672;SDS011;20011;51.510;9.942;2023-04-25T01:00:13;10.55;;;4.70;;
33672;SDS011;20011;51.510;9.942;2023-04-25T01:02:42;9.82;;;4.88;;
33672;SDS011;20011;51.510;9.942;2023-04-25T01:05:11;12.65;;;5.28;;
33672;SDS011;20011;51.510;9.942;2023-04-25T01:07:38;8.60;;;5.93;;
33672;SDS011;20011;51.510;9.942;2023-04-25T01:10:07;15.07;;;6.13;;
33672;SDS011;20011;51.510;9.942;2023-04-25T01:12:34;14.38;;;5.88;;
33672;SDS011;20011;51.510;9.942;2023-04-25T01:15:02;14.73;;;5.25;;
33672;SDS011;20011;51.510;9.942;2023-04-25T01:17:29;21.00;;;5.45;;
33672;SDS011;20011;51.510;9.942;2023-04-25T01:19:56;10.88;;;5.97;;
33672;SDS011;20011;51.510;9.942;2023-04-25T01:22:23;12.32;;;5.60;;
33672;SDS011;20011;51.510;9.942;2023-04-25T01:24:50;12.57;;;6.30;;
33672;SDS011;20011;51.510;9.942;2023-04-25T01:27:17;14.38;;;6.85;;
33672;SDS011;20011;51.510;9.942;2023-04-25T01:29:44;13.07;;;6.45;;
33672;SDS011;20011;51.510;9.942;2023-04-25T01:32:13;14.65;;;6.25;;
33672;SDS011;20011;51.510;9.942;2023-04-25T01:34:41;19.85;;;7.53;;
33672;SDS011;20011;51.510;9.942;2023-04-25T01:37:08;17.33;;;8.40;;
33672;SDS011;20011;51.510;9.942;2023-04-25T01:39:35;17.23;;;6.40;;
33672;SDS011;20011;51.510;9.942;2023-04-25T01:42:02;15.20;;;7.85;;
33672;SDS011;20011;51.510;9.942;2023-04-25T01:44:29;16.67;;;7.00;;
33672;SDS011;20011;51.510;9.942;2023-04-25T01:46:56;11.10;;;6.65;;
33672;SDS011;20011;51.510;9.942;2023-04-25T01:49:24;16.70;;;6.30;;
33672;SDS011;20011;51.510;9.942;2023-04-25T01:51:53;15.20;;;6.63;;
33672;SDS011;20011;51.510;9.942;2023-04-25T01:54:20;12.57;;;6.53;;
33672;SDS011;20011;51.510;9.942;2023-04-25T01:56:51;16.83;;;5.75;;
33672;SDS011;20011;51.510;9.942;2023-04-25T01:59:20;9.07;;;6.53;;
33672;SDS011;20011;51.510;9.942;2023-04-25T02:02:06;14.95;;;7.03;;
33672;SDS011;20011;51.510;9.942;2023-04-25T02:04:35;13.57;;;6.93;;
33672;SDS011;20011;51.510;9.942;2023-04-25T02:07:03;12.10;;;6.40;;
33672;SDS011;20011;51.510;9.942;2023-04-25T02:09:44;13.05;;;6.32;;
33672;SDS011;20011;51.510;9.942;2023-04-25T02:12:12;15.85;;;6.03;;
33672;SDS011;20011;51.510;9.942;2023-04-25T02:14:59;13.40;;;6.00;;
33672;SDS011;20011;51.510;9.942;2023-04-25T02:17:36;13.27;;;6.13;;
33672;SDS011;20011;51.510;9.942;2023-04-25T02:20:03;18.23;;;7.00;;
33672;SDS011;20011;51.510;9.942;2023-04-25T02:22:31;11.50;;;5.85;;
33672;SDS011;20011;51.510;9.942;2023-04-25T02:25:00;10.68;;;6.05;;
33672;SDS011;20011;51.510;9.942;2023-04-25T02:27:27;18.63;;;7.97;;
33672;SDS011;20011;51.510;9.942;2023-04-25T02:29:55;20.83;;;5.95;;
33672;SDS011;20011;51.510;9.942;2023-04-25T02:32:22;17.13;;;7.30;;
33672;SDS011;20011;51.510;9.942;2023-04-25T02:34:49;15.98;;;6.88;;
33672;SDS011;20011;51.510;9.942;2023-04-25T02:37:16;17.25;;;7.45;;
33672;SDS011;20011;51.510;9.942;2023-04-25T02:39:44;17.02;;;7.28;;
33672;SDS011;20011;51.510;9.942;2023-04-25T02:42:11;21.30;;;6.90;;
33672;SDS011;20011;51.510;9.942;2023-04-25T02:44:38;12.02;;;7.03;;
33672;SDS011;20011;51.510;9.942;2023-04-25T02:47:05;18.73;;;6.63;;
33672;SDS011;20011;51.510;9.942;2023-04-25T02:49:32;23.98;;;8.60;;
33672;SDS011;20011;51.510;9.942;2023-04-25T02:51:59;17.75;;;7.95;;
33672;SDS011;20011;51.510;9.942;2023-04-25T02:54:26;14.30;;;8.05;;
33672;SDS011;20011;51.510;9.942;2023-04-25T02:56:53;13.63;;;6.43;;
33672;SDS011;20011;51.510;9.942;2023-04-25T02:59:25;18.20;;;6.28;;
33672;SDS011;20011;51.510;9.942;2023-04-25T03:01:52;20.70;;;7.50;;
33672;SDS011;20011;51.510;9.942;2023-04-25T03:04:19;25.08;;;8.73;;
33672;SDS011;20011;51.510;9.942;2023-04-25T03:06:47;17.48;;;7.93;;
33672;SDS011;20011;51.510;9.942;2023-04-25T03:09:14;14.27;;;6.32;;
33672;SDS011;20011;51.510;9.942;2023-04-25T03:11:41;18.10;;;5.97;;
33672;SDS011;20011;51.510;9.942;2023-04-25T03:14:08;22.15;;;8.93;;
33672;SDS011;20011;51.510;9.942;2023-04-25T03:16:35;17.02;;;6.00;;
33672;SDS011;20011;51.510;9.942;2023-04-25T03:19:02;15.15;;;6.85;;
33672;SDS011;20011;51.510;9.942;2023-04-25T03:21:32;12.65;;;6.03;;
33672;SDS011;20011;51.510;9.942;2023-04-25T03:24:00;19.02;;;6.53;;
33672;SDS011;20011;51.510;9.942;2023-04-25T03:26:29;16.00;;;5.95;;
33672;SDS011;20011;51.510;9.942;2023-04-25T03:28:56;16.40;;;5.65;;
33672;SDS011;20011;51.510;9.942;2023-04-25T03:31:23;12.63;;;6.00;;
33672;SDS011;20011;51.510;9.942;2023-04-25T03:33:50;19.30;;;7.40;;
33672;SDS011;20011;51.510;9.942;2023-04-25T03:36:20;16.88;;;6.07;;
33672;SDS011;20011;51.510;9.942;2023-04-25T03:38:47;8.65;;;5.25;;
33672;SDS011;20011;51.510;9.942;2023-04-25T03:41:15;15.43;;;6.55;;
33672;SDS011;20011;51.510;9.942;2023-04-25T03:46:15;21.45;;;5.70;;
33672;SDS011;20011;51.510;9.942;2023-04-25T03:48:42;14.43;;;6.25;;
33672;SDS011;20011;51.510;9.942;2023-04-25T03:51:15;11.88;;;5.93;;
33672;SDS011;20011;51.510;9.942;2023-04-25T03:53:43;12.48;;;6.70;;
33672;SDS011;20011;51.510;9.942;2023-04-25T03:56:13;18.88;;;6.32;;
33672;SDS011;20011;51.510;9.942;2023-04-25T03:58:42;15.02;;;5.90;;
33672;SDS011;20011;51.510;9.942;2023-04-25T04:01:09;11.38;;;5.65;;
33672;SDS011;20011;51.510;9.942;2023-04-25T04:03:38;16.48;;;6.53;;
33672;SDS011;20011;51.510;9.942;2023-04-25T04:06:06;11.07;;;6.10;;
33672;SDS011;20011;51.510;9.942;2023-04-25T04:08:40;21.13;;;5.60;;
33672;SDS011;20011;51.510;9.942;2023-04-25T04:11:08;13.52;;;5.88;;
33672;SDS011;20011;51.510;9.942;2023-04-25T04:13:35;16.23;;;6.65;;
33672;SDS011;20011;51.510;9.942;2023-04-25T04:16:02;32.53;;;7.20;;
33672;SDS011;20011;51.510;9.942;2023-04-25T04:18:30;14.63;;;6.72;;
33672;SDS011;20011;51.510;9.942;2023-04-25T04:21:00;19.58;;;7.20;;
33672;SDS011;20011;51.510;9.942;2023-04-25T04:23:30;12.35;;;6.57;;
33672;SDS011;20011;51.510;9.942;2023-04-25T04:25:58;15.93;;;6.65;;
33672;SDS011;20011;51.510;9.942;2023-04-25T04:28:35;15.98;;;6.90;;
33672;SDS011;20011;51.510;9.942;2023-04-25T04:31:25;15.93;;;6.15;;
33672;SDS011;20011;51.510;9.942;2023-04-25T04:33:52;13.25;;;6.78;;
33672;SDS011;20011;51.510;9.942;2023-04-25T04:36:19;13.13;;;6.63;;
33672;SDS011;20011;51.510;9.942;2023-04-25T04:38:48;17.98;;;6.70;;
33672;SDS011;20011;51.510;9.942;2023-04-25T04:41:25;23.75;;;7.57;;
33672;SDS011;20011;51.510;9.942;2023-04-25T04:44:01;18.63;;;6.47;;
33672;SDS011;20011;51.510;9.942;2023-04-25T04:46:44;15.38;;;6.43;;
33672;SDS011;20011;51.510;9.942;2023-04-25T04:49:31;18.67;;;7.22;;
33672;SDS011;20011;51.510;9.942;2023-04-25T04:52:17;13.15;;;6.38;;
33672;SDS011;20011;51.510;9.942;2023-04-25T04:55:04;18.63;;;7.55;;
33672;SDS011;20011;51.510;9.942;2023-04-25T05:00:38;14.85;;;5.60;;
33672;SDS011;20011;51.510;9.942;2023-04-25T05:03:10;14.43;;;7.18;;
33672;SDS011;20011;51.510;9.942;2023-04-25T05:05:58;10.70;;;6.72;;
33672;SDS011;20011;51.510;9.942;2023-04-25T05:08:51;16.45;;;5.78;;
33672;SDS011;20011;51.510;9.942;2023-04-25T05:11:19;13.77;;;5.95;;
33672;SDS011;20011;51.510;9.942;2023-04-25T05:13:56;12.85;;;5.95;;
33672;SDS011;20011;51.510;9.942;2023-04-25T05:16:46;15.27;;;6.97;;
33672;SDS011;20011;51.510;9.942;2023-04-25T05:19:42;11.80;;;6.72;;
33672;SDS011;20011;51.510;9.942;2023-04-25T05:22:16;14.75;;;6.28;;
33672;SDS011;20011;51.510;9.942;2023-04-25T05:25:01;10.13;;;6.18;;
33672;SDS011;20011;51.510;9.942;2023-04-25T05:27:49;8.32;;;5.18;;
33672;SDS011;20011;51.510;9.942;2023-04-25T05:30:27;10.80;;;5.68;;
33672;SDS011;20011;51.510;9.942;2023-04-25T05:33:02;13.45;;;6.05;;
33672;SDS011;20011;51.510;9.942;2023-04-25T05:35:29;14.32;;;6.32;;
33672;SDS011;20011;51.510;9.942;2023-04-25T05:37:56;14.48;;;6.53;;
33672;SDS011;20011;51.510;9.942;2023-04-25T05:40:37;9.68;;;6.55;;
33672;SDS011;20011;51.510;9.942;2023-04-25T05:43:24;12.40;;;5.95;;
33672;SDS011;20011;51.510;9.942;2023-04-25T05:46:02;9.38;;;6.35;;
33672;SDS011;20011;51.510;9.942;2023-04-25T05:48:40;18.75;;;7.55;;
33672;SDS011;20011;51.510;9.942;2023-04-25T05:51:25;13.60;;;6.70;;
33672;SDS011;20011;51.510;9.942;2023-04-25T05:54:05;12.85;;;7.35;;
33672;SDS011;20011;51.510;9.942;2023-04-25T05:56:33;17.90;;;6.13;;
33672;SDS011;20011;51.510;9.942;2023-04-25T05:59:00;14.20;;;5.30;;
33672;SDS011;20011;51.510;9.942;2023-04-25T06:01:27;19.95;;;5.93;;
33672;SDS011;20011;51.510;9.942;2023-04-25T06:03:54;16.08;;;5.68;;
33672;SDS011;20011;51.510;9.942;2023-04-25T06:06:22;15.73;;;6.28;;
33672;SDS011;20011;51.510;9.942;2023-04-25T06:08:49;15.73;;;5.00;;
33672;SDS011;20011;51.510;9.942;2023-04-25T06:11:16;24.52;;;5.75;;
33672;SDS011;20011;51.510;9.942;2023-04-25T06:13:44;20.77;;;5.63;;
33672;SDS011;20011;51.510;9.942;2023-04-25T06:16:15;21.05;;;5.05;;
33672;SDS011;20011;51.510;9.942;2023-04-25T06:18:42;20.58;;;4.95;;
33672;SDS011;20011;51.510;9.942;2023-04-25T06:21:09;19.08;;;4.60;;
33672;SDS011;20011;51.510;9.942;2023-04-25T06:23:36;23.73;;;5.25;;
33672;SDS011;20011;51.510;9.942;2023-04-25T06:26:06;38.15;;;8.70;;
33672;SDS011;20011;51.510;9.942;2023-04-25T06:28:35;24.60;;;5.75;;
33672;SDS011;20011;51.510;9.942;2023-04-25T06:31:03;19.88;;;4.07;;
33672;SDS011;20011;51.510;9.942;2023-04-25T06:33:31;18.92;;;4.35;;
33672;SDS011;20011;51.510;9.942;2023-04-25T06:35:58;15.35;;;3.95;;
33672;SDS011;20011;51.510;9.942;2023-04-25T06:38:26;20.52;;;5.38;;
33672;SDS011;20011;51.510;9.942;2023-04-25T06:40:55;17.85;;;3.95;;
33672;SDS011;20011;51.510;9.942;2023-04-25T06:43:23;15.43;;;3.72;;
33672;SDS011;20011;51.510;9.942;2023-04-25T06:45:54;18.83;;;3.80;;
33672;SDS011;20011;51.510;9.942;2023-04-25T06:48:23;13.68;;;4.05;;
33672;SDS011;20011;51.510;9.942;2023-04-25T06:50:51;20.95;;;3.22;;
33672;SDS011;20011;51.510;9.942;2023-04-25T06:53:18;21.70;;;4.47;;
33672;SDS011;20011;51.510;9.942;2023-04-25T06:55:51;15.23;;;4.60;;
33672;SDS011;20011;51.510;9.942;2023-04-25T06:58:20;14.60;;;3.25;;
33672;SDS011;20011;51.510;9.942;2023-04-25T07:01:07;15.95;;;4.80;;
33672;SDS011;20011;51.510;9.942;2023-04-25T07:03:35;13.65;;;3.50;;
33672;SDS011;20011;51.510;9.942;2023-04-25T07:06:09;14.40;;;3.97;;
33672;SDS011;20011;51.510;9.942;2023-04-25T07:08:37;13.80;;;4.18;;
33672;SDS011;20011;51.510;9.942;2023-04-25T07:11:04;26.70;;;4.65;;
33672;SDS011;20011;51.510;9.942;2023-04-25T07:13:31;11.75;;;3.10;;
33672;SDS011;20011;51.510;9.942;2023-04-25T07:15:59;18.55;;;3.30;;
33672;SDS011;20011;51.510;9.942;2023-04-25T07:18:29;24.88;;;3.63;;
33672;SDS011;20011;51.510;9.942;2023-04-25T07:20:56;15.23;;;3.47;;
33672;SDS011;20011;51.510;9.942;2023-04-25T07:23:23;16.70;;;3.15;;
33672;SDS011;20011;51.510;9.942;2023-04-25T07:25:53;13.07;;;3.10;;
33672;SDS011;20011;51.510;9.942;2023-04-25T07:28:23;18.55;;;3.38;;
33672;SDS011;20011;51.510;9.942;2023-04-25T07:30:50;11.23;;;3.22;;
33672;SDS011;20011;51.510;9.942;2023-04-25T07:33:17;10.02;;;2.70;;
33672;SDS011;20011;51.510;9.942;2023-04-25T07:35:46;24.33;;;3.15;;
33672;SDS011;20011;51.510;9.942;2023-04-25T07:38:14;14.93;;;3.92;;
33672;SDS011;20011;51.510;9.942;2023-04-25T07:40:40;17.23;;;3.50;;
33672;SDS011;20011;51.510;9.942;2023-04-25T07:43:10;11.57;;;3.65;;
33672;SDS011;20011;51.510;9.942;2023-04-25T07:45:48;15.27;;;3.30;;
33672;SDS011;20011;51.510;9.942;2023-04-25T07:48:17;15.68;;;3.20;;
33672;SDS011;20011;51.510;9.942;2023-04-25T07:50:45;12.40;;;3.92;;
33672;SDS011;20011;51.510;9.942;2023-04-25T07:53:13;15.55;;;3.20;;
33672;SDS011;20011;51.510;9.942;2023-04-25T07:55:50;16.88;;;3.67;;
33672;SDS011;20011;51.510;9.942;2023-04-25T07:58:19;23.95;;;3.40;;
33672;SDS011;20011;51.510;9.942;2023-04-25T08:00:52;24.63;;;3.92;;
33672;SDS011;20011;51.510;9.942;2023-04-25T08:03:34;13.20;;;3.95;;
33672;SDS011;20011;51.510;9.942;2023-04-25T08:06:07;14.30;;;3.80;;
33672;SDS011;20011;51.510;9.942;2023-04-25T08:08:43;19.13;;;3.22;;
33672;SDS011;20011;51.510;9.942;2023-04-25T08:13:40;12.05;;;3.33;;
33672;SDS011;20011;51.510;9.942;2023-04-25T08:16:08;18.17;;;3.17;;
33672;SDS011;20011;51.510;9.942;2023-04-25T08:18:35;17.45;;;3.40;;
33672;SDS011;20011;51.510;9.942;2023-04-25T08:21:02;14.63;;;3.35;;
33672;SDS011;20011;51.510;9.942;2023-04-25T08:23:30;20.65;;;4.07;;
33672;SDS011;20011;51.510;9.942;2023-04-25T08:26:02;17.85;;;3.63;;
33672;SDS011;20011;51.510;9.942;2023-04-25T08:28:33;21.42;;;4.78;;
33672;SDS011;20011;51.510;9.942;2023-04-25T08:31:01;13.75;;;3.75;;
33672;SDS011;20011;51.510;9.942;2023-04-25T08:33:34;15.07;;;4.10;;
33672;SDS011;20011;51.510;9.942;2023-04-25T08:36:19;28.13;;;4.90;;
33672;SDS011;20011;51.510;9.942;2023-04-25T08:39:04;16.48;;;3.67;;
33672;SDS011;20011;51.510;9.942;2023-04-25T08:41:37;13.30;;;3.35;;
33672;SDS011;20011;51.510;9.942;2023-04-25T08:44:05;13.65;;;3.30;;
33672;SDS011;20011;51.510;9.942;2023-04-25T08:46:40;22.10;;;4.38;;
33672;SDS011;20011;51.510;9.942;2023-04-25T08:49:20;23.08;;;5.25;;
33672;SDS011;20011;51.510;9.942;2023-04-25T08:51:48;8.20;;;3.15;;
33672;SDS011;20011;51.510;9.942;2023-04-25T08:54:21;14.40;;;3.25;;
33672;SDS011;20011;51.510;9.942;2023-04-25T08:57:01;21.58;;;3.30;;
33672;SDS011;20011;51.510;9.942;2023-04-25T08:59:31;12.50;;;3.57;;
33672;SDS011;20011;51.510;9.942;2023-04-25T09:02:00;23.23;;;4.80;;
33672;SDS011;20011;51.510;9.942;2023-04-25T09:04:32;14.33;;;3.37;;
33672;SDS011;20011;51.510;9.942;2023-04-25T09:06:59;17.92;;;4.18;;
33672;SDS011;20011;51.510;9.942;2023-04-25T09:09:27;19.95;;;3.53;;
33672;SDS011;20011;51.510;9.942;2023-04-25T09:11:55;8.90;;;2.95;;
33672;SDS011;20011;51.510;9.942;2023-04-25T09:14:24;12.15;;;3.40;;
33672;SDS011;20011;51.510;9.942;2023-04-25T09:17:12;15.80;;;3.60;;
33672;SDS011;20011;51.510;9.942;2023-04-25T09:19:41;14.52;;;3.55;;
33672;SDS011;20011;51.510;9.942;2023-04-25T09:22:16;16.92;;;4.10;;
33672;SDS011;20011;51.510;9.942;2023-04-25T09:24:47;18.13;;;3.55;;
33672;SDS011;20011;51.510;9.942;2023-04-25T09:27:18;22.67;;;5.07;;
33672;SDS011;20011;51.510;9.942;2023-04-25T09:29:49;19.25;;;3.60;;
33672;SDS011;20011;51.510;9.942;2023-04-25T09:32:24;19.85;;;2.80;;
33672;SDS011;20011;51.510;9.942;2023-04-25T09:34:55;20.40;;;3.58;;
33672;SDS011;20011;51.510;9.942;2023-04-25T09:37:29;19.90;;;3.40;;
33672;SDS011;20011;51.510;9.942;2023-04-25T09:40:15;10.27;;;3.13;;
33672;SDS011;20011;51.510;9.942;2023-04-25T09:43:00;18.20;;;3.33;;
33672;SDS011;20011;51.510;9.942;2023-04-25T09:45:29;10.80;;;2.67;;
33672;SDS011;20011;51.510;9.942;2023-04-25T09:47:59;11.48;;;3.28;;
33672;SDS011;20011;51.510;9.942;2023-04-25T09:50:31;11.60;;;3.75;;
33672;SDS011;20011;51.510;9.942;2023-04-25T09:53:06;12.95;;;2.88;;
33672;SDS011;20011;51.510;9.942;2023-04-25T09:55:50;20.33;;;3.58;;
33672;SDS011;20011;51.510;9.942;2023-04-25T09:58:18;15.63;;;2.85;;
33672;SDS011;20011;51.510;9.942;2023-04-25T10:00:46;12.95;;;2.40;;
33672;SDS011;20011;51.510;9.942;2023-04-25T10:03:26;11.73;;;2.97;;
33672;SDS011;20011;51.510;9.942;2023-04-25T10:06:25;12.05;;;2.42;;
33672;SDS011;20011;51.510;9.942;2023-04-25T10:08:54;8.35;;;2.03;;
33672;SDS011;20011;51.510;9.942;2023-04-25T10:11:22;11.10;;;2.78;;
33672;SDS011;20011;51.510;9.942;2023-04-25T10:13:51;13.00;;;2.97;;
33672;SDS011;20011;51.510;9.942;2023-04-25T10:16:19;9.63;;;3.03;;
33672;SDS011;20011;51.510;9.942;2023-04-25T10:18:46;9.75;;;1.95;;
33672;SDS011;20011;51.510;9.942;2023-04-25T10:21:14;10.50;;;2.40;;
33672;SDS011;20011;51.510;9.942;2023-04-25T10:23:42;10.95;;;2.15;;
33672;SDS011;20011;51.510;9.942;2023-04-25T10:26:10;14.45;;;2.58;;
33672;SDS011;20011;51.510;9.942;2023-04-25T10:31:26;8.00;;;2.03;;
33672;SDS011;20011;51.510;9.942;2023-04-25T10:33:53;14.27;;;2.22;;
33672;SDS011;20011;51.510;9.942;2023-04-25T10:36:21;9.88;;;2.38;;
33672;SDS011;20011;51.510;9.942;2023-04-25T10:38:50;11.18;;;2.25;;
33672;SDS011;20011;51.510;9.942;2023-04-25T10:41:18;13.30;;;2.15;;
33672;SDS011;20011;51.510;9.942;2023-04-25T10:43:46;12.93;;;2.83;;
33672;SDS011;20011;51.510;9.942;2023-04-25T10:46:24;10.55;;;2.50;;
33672;SDS011;20011;51.510;9.942;2023-04-25T10:48:53;7.00;;;2.10;;
33672;SDS011;20011;51.510;9.942;2023-04-25T10:54:16;6.85;;;1.95;;
33672;SDS011;20011;51.510;9.942;2023-04-25T10:56:44;7.97;;;2.00;;
33672;SDS011;20011;51.510;9.942;2023-04-25T10:59:12;14.27;;;3.38;;
33672;SDS011;20011;51.510;9.942;2023-04-25T11:01:43;10.23;;;1.85;;
33672;SDS011;20011;51.510;9.942;2023-04-25T11:04:20;7.95;;;2.05;;
33672;SDS011;20011;51.510;9.942;2023-04-25T11:10:02;8.20;;;1.98;;
33672;SDS011;20011;51.510;9.942;2023-04-25T11:12:30;14.48;;;1.80;;
33672;SDS011;20011;51.510;9.942;2023-04-25T11:15:01;5.97;;;1.52;;
33672;SDS011;20011;51.510;9.942;2023-04-25T11:17:30;22.55;;;2.17;;
33672;SDS011;20011;51.510;9.942;2023-04-25T11:19:57;8.20;;;2.00;;
33672;SDS011;20011;51.510;9.942;2023-04-25T11:22:24;8.57;;;1.83;;
33672;SDS011;20011;51.510;9.942;2023-04-25T11:24:53;7.00;;;1.83;;
33672;SDS011;20011;51.510;9.942;2023-04-25T11:27:20;7.28;;;1.77;;
33672;SDS011;20011;51.510;9.942;2023-04-25T11:29:48;8.88;;;2.10;;
33672;SDS011;20011;51.510;9.942;2023-04-25T11:32:15;10.23;;;2.03;;
33672;SDS011;20011;51.510;9.942;2023-04-25T11:34:44;10.00;;;2.25;;
33672;SDS011;20011;51.510;9.942;2023-04-25T11:37:13;10.98;;;3.17;;
33672;SDS011;20011;51.510;9.942;2023-04-25T11:39:44;9.63;;;1.75;;
33672;SDS011;20011;51.510;9.942;2023-04-25T11:42:14;10.75;;;1.95;;
33672;SDS011;20011;51.510;9.942;2023-04-25T11:44:41;10.55;;;2.13;;
33672;SDS011;20011;51.510;9.942;2023-04-25T11:47:08;9.45;;;1.95;;
33672;SDS011;20011;51.510;9.942;2023-04-25T11:49:36;11.82;;;2.35;;
33672;SDS011;20011;51.510;9.942;2023-04-25T11:52:02;12.02;;;2.08;;
33672;SDS011;20011;51.510;9.942;2023-04-25T11:54:34;7.97;;;1.80;;
33672;SDS011;20011;51.510;9.942;2023-04-25T11:57:02;7.22;;;2.67;;
33672;SDS011;20011;51.510;9.942;2023-04-25T11:59:30;4.80;;;1.52;;
33672;SDS011;20011;51.510;9.942;2023-04-25T12:01:57;4.82;;;1.65;;
33672;SDS011;20011;51.510;9.942;2023-04-25T12:04:24;6.43;;;2.10;;
33672;SDS011;20011;51.510;9.942;2023-04-25T12:06:53;11.98;;;2.05;;
33672;SDS011;20011;51.510;9.942;2023-04-25T12:09:21;5.30;;;1.83;;
33672;SDS011;20011;51.510;9.942;2023-04-25T12:11:56;8.32;;;2.60;;
33672;SDS011;20011;51.510;9.942;2023-04-25T12:14:34;8.35;;;1.90;;
33672;SDS011;20011;51.510;9.942;2023-04-25T12:17:02;8.13;;;2.28;;
33672;SDS011;20011;51.510;9.942;2023-04-25T12:19:33;5.45;;;1.60;;
33672;SDS011;20011;51.510;9.942;2023-04-25T12:22:01;5.60;;;1.65;;
33672;SDS011;20011;51.510;9.942;2023-04-25T12:24:33;5.50;;;1.98;;
33672;SDS011;20011;51.510;9.942;2023-04-25T12:27:07;7.88;;;1.95;;
33672;SDS011;20011;51.510;9.942;2023-04-25T12:32:15;6.68;;;1.73;;
33672;SDS011;20011;51.510;9.942;2023-04-25T12:34:43;10.90;;;2.72;;
33672;SDS011;20011;51.510;9.942;2023-04-25T12:37:10;8.40;;;2.05;;
33672;SDS011;20011;51.510;9.942;2023-04-25T12:39:38;10.10;;;2.20;;
33672;SDS011;20011;51.510;9.942;2023-04-25T12:42:05;4.82;;;1.42;;
33672;SDS011;20011;51.510;9.942;2023-04-25T12:44:35;15.90;;;2.03;;
33672;SDS011;20011;51.510;9.942;2023-04-25T12:47:02;7.40;;;1.60;;
33672;SDS011;20011;51.510;9.942;2023-04-25T12:49:30;8.20;;;1.92;;
33672;SDS011;20011;51.510;9.942;2023-04-25T12:51:58;7.30;;;2.20;;
33672;SDS011;20011;51.510;9.942;2023-04-25T12:54:25;6.50;;;2.42;;
33672;SDS011;20011;51.510;9.942;2023-04-25T12:56:52;9.73;;;2.10;;
33672;SDS011;20011;51.510;9.942;2023-04-25T12:59:19;7.20;;;1.98;;
33672;SDS011;20011;51.510;9.942;2023-04-25T13:01:47;5.05;;;2.10;;
33672;SDS011;20011;51.510;9.942;2023-04-25T13:04:14;6.00;;;2.35;;
33672;SDS011;20011;51.510;9.942;2023-04-25T13:06:42;7.35;;;1.70;;
33672;SDS011;20011;51.510;9.942;2023-04-25T13:09:09;7.28;;;1.77;;
33672;SDS011;20011;51.510;9.942;2023-04-25T13:11:38;12.40;;;1.98;;
33672;SDS011;20011;51.510;9.942;2023-04-25T13:14:07;9.00;;;1.65;;
33672;SDS011;20011;51.510;9.942;2023-04-25T13:16:34;15.93;;;2.28;;
33672;SDS011;20011;51.510;9.942;2023-04-25T13:19:01;5.85;;;1.70;;
33672;SDS011;20011;51.510;9.942;2023-04-25T13:21:29;11.23;;;1.77;;
33672;SDS011;20011;51.510;9.942;2023-04-25T13:23:59;5.10;;;1.48;;
33672;SDS011;20011;51.510;9.942;2023-04-25T13:26:27;7.78;;;1.88;;
33672;SDS011;20011;51.510;9.942;2023-04-25T13:28:54;3.47;;;1.83;;
33672;SDS011;20011;51.510;9.942;2023-04-25T13:31:20;8.60;;;2.53;;
33672;SDS011;20011;51.510;9.942;2023-04-25T13:33:48;7.55;;;1.60;;
33672;SDS011;20011;51.510;9.942;2023-04-25T13:36:15;8.82;;;1.48;;
33672;SDS011;20011;51.510;9.942;2023-04-25T13:38:42;5.20;;;2.05;;
33672;SDS011;20011;51.510;9.942;2023-04-25T13:41:11;5.30;;;1.63;;
33672;SDS011;20011;51.510;9.942;2023-04-25T13:43:44;3.30;;;1.70;;
33672;SDS011;20011;51.510;9.942;2023-04-25T13:46:13;3.97;;;1.50;;
33672;SDS011;20011;51.510;9.942;2023-04-25T13:49:01;16.80;;;2.45;;
33672;SDS011;20011;51.510;9.942;2023-04-25T13:51:38;9.63;;;2.00;;
33672;SDS011;20011;51.510;9.942;2023-04-25T13:54:05;3.92;;;2.00;;
33672;SDS011;20011;51.510;9.942;2023-04-25T13:56:32;5.43;;;1.40;;
33672;SDS011;20011;51.510;9.942;2023-04-25T13:58:59;5.15;;;1.30;;
33672;SDS011;20011;51.510;9.942;2023-04-25T14:01:26;11.32;;;2.60;;
33672;SDS011;20011;51.510;9.942;2023-04-25T14:03:54;7.43;;;1.58;;
33672;SDS011;20011;51.510;9.942;2023-04-25T14:06:21;7.10;;;1.75;;
33672;SDS011;20011;51.510;9.942;2023-04-25T14:08:50;11.57;;;1.85;;
33672;SDS011;20011;51.510;9.942;2023-04-25T14:11:17;9.23;;;1.92;;
33672;SDS011;20011;51.510;9.942;2023-04-25T14:13:45;5.07;;;1.65;;
33672;SDS011;20011;51.510;9.942;2023-04-25T14:16:12;7.97;;;1.55;;
33672;SDS011;20011;51.510;9.942;2023-04-25T14:18:39;4.22;;;1.88;;
33672;SDS011;20011;51.510;9.942;2023-04-25T14:21:06;6.25;;;1.50;;
33672;SDS011;20011;51.510;9.942;2023-04-25T14:23:33;5.68;;;1.60;;
33672;SDS011;20011;51.510;9.942;2023-04-25T14:26:00;7.00;;;1.35;;
33672;SDS011;20011;51.510;9.942;2023-04-25T14:28:28;8.32;;;1.60;;
33672;SDS011;20011;51.510;9.942;2023-04-25T14:30:55;2.38;;;1.23;;
33672;SDS011;20011;51.510;9.942;2023-04-25T14:33:22;4.50;;;1.45;;
33672;SDS011;20011;51.510;9.942;2023-04-25T14:35:49;4.57;;;1.73;;
33672;SDS011;20011;51.510;9.942;2023-04-25T14:38:16;4.47;;;1.85;;
33672;SDS011;20011;51.510;9.942;2023-04-25T14:40:49;2.85;;;1.30;;
33672;SDS011;20011;51.510;9.942;2023-04-25T14:43:16;8.38;;;1.85;;
33672;SDS011;20011;51.510;9.942;2023-04-25T14:45:44;6.03;;;1.65;;
33672;SDS011;20011;51.510;9.942;2023-04-25T14:48:11;7.97;;;3.72;;
33672;SDS011;20011;51.510;9.942;2023-04-25T14:50:38;18.85;;;7.75;;
33672;SDS011;20011;51.510;9.942;2023-04-25T14:53:05;14.40;;;6.53;;
33672;SDS011;20011;51.510;9.942;2023-04-25T14:55:32;20.15;;;7.85;;
33672;SDS011;20011;51.510;9.942;2023-04-25T14:57:59;19.83;;;5.47;;
33672;SDS011;20011;51.510;9.942;2023-04-25T15:00:26;8.02;;;4.65;;
33672;SDS011;20011;51.510;9.942;2023-04-25T15:02:52;7.80;;;3.40;;
33672;SDS011;20011;51.510;9.942;2023-04-25T15:05:20;3.25;;;2.00;;
33672;SDS011;20011;51.510;9.942;2023-04-25T15:07:47;5.53;;;1.67;;
33672;SDS011;20011;51.510;9.942;2023-04-25T15:10:14;5.47;;;1.50;;
33672;SDS011;20011;51.510;9.942;2023-04-25T15:12:42;8.57;;;1.50;;
33672;SDS011;20011;51.510;9.942;2023-04-25T15:15:12;3.88;;;1.67;;